createdAt,value
2019-06-27T00:08:15.881Z,61.87
2019-06-27T00:16:34.550Z,62.89
2019-06-27T00:24:53.237Z,62.64
2019-06-27T00:33:11.890Z,63.82
2019-06-27T00:41:30.578Z,64.24
2019-06-27T00:49:49.268Z,63.69
2019-06-27T00:58:07.930Z,63.89
2019-06-27T01:06:26.628Z,64.44
2019-06-27T01:14:45.289Z,64.94
2019-06-27T01:23:04.012Z,64.43
2019-06-27T01:31:22.715Z,64.84
2019-06-27T01:39:41.367Z,65.16
2019-06-27T01:48:00.010Z,65.05
2019-06-27T01:56:18.688Z,65.44
2019-06-27T02:04:37.854Z,65.03
2019-06-27T02:12:56.515Z,64.53
2019-06-27T02:21:15.260Z,64.07
2019-06-27T02:29:33.907Z,64.45
2019-06-27T02:37:52.590Z,63.94
2019-06-27T02:46:11.367Z,64.04
2019-06-27T02:54:30.287Z,63.76
2019-06-27T03:02:48.939Z,63.43
2019-06-27T03:11:07.686Z,63.46
2019-06-27T03:19:26.458Z,63.34
2019-06-27T03:27:45.140Z,63.01
2019-06-27T03:36:03.887Z,63.33
2019-06-27T03:44:23.033Z,63.88
2019-06-27T03:52:41.818Z,63.75
2019-06-27T04:01:00.515Z,63.63
2019-06-27T04:09:19.196Z,63.42
2019-06-27T04:17:37.884Z,63.88
2019-06-27T04:25:56.647Z,63.69
2019-06-27T04:34:19.578Z,63.63
2019-06-27T04:42:35.750Z,57.88
2019-06-27T04:50:54.520Z,60.52
2019-06-27T04:59:13.242Z,62.27
2019-06-27T05:07:31.928Z,61.33
2019-06-27T05:15:50.596Z,49.27
2019-06-27T05:24:09.338Z,55.54
2019-06-27T05:32:28.074Z,47.38
2019-06-27T05:40:46.777Z,48.65
2019-06-27T05:49:05.530Z,49.70
2019-06-27T05:57:24.352Z,49.70
2019-06-27T06:05:43.302Z,54.60
2019-06-27T06:14:02.066Z,57.36
2019-06-27T06:22:20.917Z,56.00
2019-06-27T06:30:44.446Z,56.51
2019-06-27T06:39:00.211Z,55.80
2019-06-27T06:47:18.917Z,54.80
2019-06-27T06:55:37.921Z,52.73
2019-06-27T07:03:57.166Z,52.25
2019-06-27T07:12:15.872Z,51.22
2019-06-27T07:20:34.602Z,51.83
2019-06-27T07:28:53.485Z,51.16
2019-06-27T07:37:12.161Z,50.82
2019-06-27T07:45:30.902Z,49.89
2019-06-27T07:53:49.557Z,48.30
2019-06-27T08:02:08.265Z,49.09
2019-06-27T08:10:26.980Z,48.70
2019-06-27T08:18:45.687Z,48.11
2019-06-27T08:27:04.503Z,45.82
2019-06-27T08:35:23.215Z,46.10
2019-06-27T08:43:41.928Z,45.29
2019-06-27T08:52:00.682Z,46.61
2019-06-27T09:00:19.706Z,46.20
2019-06-27T09:08:38.403Z,42.84
2019-06-27T09:16:57.079Z,43.30
2019-06-27T09:25:16.576Z,43.35
2019-06-27T09:33:35.273Z,42.92
2019-06-27T09:41:53.991Z,44.00
2019-06-27T09:50:13.159Z,41.19
2019-06-27T09:58:31.801Z,40.73
2019-06-27T10:06:50.602Z,39.74
2019-06-27T10:15:10.562Z,38.67
2019-06-27T10:23:29.243Z,39.32
2019-06-27T10:31:47.964Z,39.76
2019-06-27T10:40:58.487Z,39.48
2019-06-27T10:49:17.125Z,38.59
2019-06-27T10:57:35.846Z,39.67
2019-06-27T11:05:54.555Z,39.08
2019-06-27T11:23:20.232Z,38.16
2019-06-27T11:31:39.634Z,36.31
2019-06-27T11:39:58.316Z,36.17
2019-06-27T11:48:17.275Z,36.29
2019-06-27T11:56:36.076Z,36.28
2019-06-27T12:04:54.781Z,36.40
2019-06-27T12:13:13.547Z,36.37
2019-06-27T12:21:32.232Z,36.01
2019-06-27T12:29:50.966Z,35.65
2019-06-27T12:38:09.630Z,34.96
2019-06-27T12:46:28.285Z,34.70
2019-06-27T12:54:46.971Z,34.30
2019-06-27T13:03:05.699Z,34.16
2019-06-27T13:11:24.462Z,33.10
2019-06-27T13:19:43.182Z,33.66
2019-06-27T13:28:01.864Z,32.79
2019-06-27T13:36:20.528Z,32.42
2019-06-27T13:44:39.182Z,32.16
2019-06-27T13:52:57.878Z,32.20
2019-06-27T14:01:17.252Z,32.95
2019-06-27T14:09:51.061Z,31.85
2019-06-27T14:17:56.481Z,32.12
2019-06-27T14:26:15.282Z,31.33
2019-06-27T14:34:33.940Z,30.51
2019-06-27T14:42:52.635Z,31.20
2019-06-27T14:51:11.285Z,31.42
2019-06-27T14:59:42.061Z,31.54
2019-06-27T15:08:00.734Z,25.19
2019-06-27T15:16:20.301Z,24.35
2019-06-27T15:24:39.297Z,21.75
2019-06-27T15:32:58.098Z,21.75
2019-06-27T15:41:16.777Z,23.54
2019-06-27T15:49:35.449Z,23.10
2019-06-27T15:57:54.115Z,23.01
2019-06-27T16:06:15.059Z,22.89
2019-06-27T16:14:33.206Z,24.31
2019-06-27T16:22:51.883Z,23.22
2019-06-27T16:31:10.572Z,22.42
2019-06-27T16:39:29.260Z,27.17
2019-06-27T16:47:48.001Z,33.13
2019-06-27T16:56:06.764Z,34.75
2019-06-27T17:04:25.480Z,34.35
2019-06-27T17:12:44.397Z,33.87
2019-06-27T17:21:03.056Z,35.48
2019-06-27T17:29:22.044Z,36.25
2019-06-27T17:37:40.721Z,37.39
2019-06-27T17:45:59.424Z,37.75
2019-06-27T17:54:18.064Z,38.11
2019-06-27T18:02:36.950Z,38.09
2019-06-27T18:10:55.642Z,38.31
2019-06-27T18:19:14.318Z,38.13
2019-06-27T18:27:33.051Z,38.43
2019-06-27T18:35:51.779Z,39.08
2019-06-27T18:44:10.483Z,42.90
2019-06-27T18:52:29.235Z,44.09
2019-06-27T19:00:48.173Z,45.96
2019-06-27T19:09:07.891Z,46.07
2019-06-27T19:17:26.889Z,46.07
2019-06-27T19:25:46.809Z,47.61
2019-06-27T19:34:05.558Z,48.03
2019-06-27T19:42:24.290Z,48.81
2019-06-27T19:50:43.065Z,49.09
2019-06-27T19:59:01.830Z,49.34
2019-06-27T20:07:20.770Z,49.69
2019-06-27T20:15:39.612Z,49.91
2019-06-27T20:23:58.382Z,50.12
2019-06-27T20:32:17.145Z,50.60
2019-06-27T20:40:35.823Z,51.26
2019-06-27T20:48:54.526Z,51.68
2019-06-27T20:57:13.208Z,51.66
2019-06-27T21:05:32.137Z,51.97
2019-06-27T21:13:50.827Z,52.52
2019-06-27T21:22:10.080Z,52.64
2019-06-27T21:30:29.072Z,53.23
2019-06-27T21:38:47.755Z,53.36
2019-06-27T21:47:06.425Z,54.05
2019-06-27T21:55:25.180Z,54.22
2019-06-27T22:03:43.883Z,54.44
2019-06-27T22:12:02.757Z,54.31
2019-06-27T22:20:21.798Z,54.53
2019-06-27T22:28:40.786Z,55.47
2019-06-27T22:37:03.449Z,55.35
2019-06-27T22:45:40.099Z,55.95
2019-06-27T22:54:02.287Z,56.40
2019-06-27T23:02:21.065Z,57.23
2019-06-27T23:10:39.785Z,57.45
2019-06-27T23:18:58.471Z,57.33
2019-06-27T23:27:17.133Z,57.87
2019-06-27T23:35:35.891Z,57.62
2019-06-27T23:43:54.581Z,57.81
2019-06-27T23:52:13.266Z,57.65
